EHAK

A12-cpp Sea

A12-cpp Sea, The Netherlands
METAR EHAK 151855Z AUTO 35030KT 300V010 9999 -UP FEW012/// SCT049/// 06/01 Q1000 W///H///
Observed Flight Rules
Dec-15 @ 18:55 UTC (40 minutes ago) Visual Flight Rules
Wind Visibility Clouds Conditions
350° at 30 knots 10,000+ meters
  • Few at 1,200' AGL
  • Scattered at 4,900' AGL
  • Unknown precipitation
Temperatures Readings
Current 6°C / 43°F
Dewpoint 1°C / 34°F
Humidity 71%
Altimeter 29.53" Hg
Pressure 1000 hPa
Elevation 50
METAR EHAK 151855Z AUTO 35030KT 300V010 9999 -UP FEW012/// SCT049/// 06/01 Q1000 W///H///
Observed Flight Rules
Dec-15 @ 18:55 UTC
(40 minutes ago)
VFR
Wind Visibility
350° at 30 knots 10,000+ meters
Clouds
  • Few at 1,200' AGL
  • Scattered at 4,900' AGL
Conditions
  • Unknown precipitation
Temperature Dewpoint
6°C / 43°F 1°C / 34°F
Humidity Altimeter Pressure
71% 29.53" Hg 1000 hPa